sensor_id;sensor_type;location;lat;lon;timestamp;temperature;humidity
70271;SHT31;57680;54.292;18.598;2023-04-01T00:00:20;4.46;98.99
70271;SHT31;57680;54.292;18.598;2023-04-01T00:02:46;4.38;98.94
70271;SHT31;57680;54.292;18.598;2023-04-01T00:05:12;4.32;98.80
70271;SHT31;57680;54.292;18.598;2023-04-01T00:07:38;4.23;98.79
70271;SHT31;57680;54.292;18.598;2023-04-01T00:10:10;4.18;99.01
70271;SHT31;57680;54.292;18.598;2023-04-01T00:12:37;4.12;99.05
70271;SHT31;57680;54.292;18.598;2023-04-01T00:15:04;4.09;99.15
70271;SHT31;57680;54.292;18.598;2023-04-01T00:17:30;4.01;99.00
70271;SHT31;57680;54.292;18.598;2023-04-01T00:19:56;3.92;98.72
70271;SHT31;57680;54.292;18.598;2023-04-01T00:22:21;3.85;98.94
70271;SHT31;57680;54.292;18.598;2023-04-01T00:24:47;3.81;99.08
70271;SHT31;57680;54.292;18.598;2023-04-01T00:27:13;3.77;99.18
70271;SHT31;57680;54.292;18.598;2023-04-01T00:29:42;3.74;99.33
70271;SHT31;57680;54.292;18.598;2023-04-01T00:32:07;3.71;99.30
70271;SHT31;57680;54.292;18.598;2023-04-01T00:34:32;3.70;99.49
70271;SHT31;57680;54.292;18.598;2023-04-01T00:36:58;3.71;99.61
70271;SHT31;57680;54.292;18.598;2023-04-01T00:39:23;3.73;99.63
70271;SHT31;57680;54.292;18.598;2023-04-01T00:41:48;3.64;99.37
70271;SHT31;57680;54.292;18.598;2023-04-01T00:44:20;3.64;99.26
70271;SHT31;57680;54.292;18.598;2023-04-01T00:46:46;3.61;99.22
70271;SHT31;57680;54.292;18.598;2023-04-01T00:49:12;3.56;99.25
70271;SHT31;57680;54.292;18.598;2023-04-01T00:51:38;3.60;99.41
70271;SHT31;57680;54.292;18.598;2023-04-01T00:54:05;3.60;99.22
70271;SHT31;57680;54.292;18.598;2023-04-01T00:56:36;3.59;99.23
70271;SHT31;57680;54.292;18.598;2023-04-01T00:59:09;3.57;99.18
70271;SHT31;57680;54.292;18.598;2023-04-01T01:01:36;3.53;99.37
70271;SHT31;57680;54.292;18.598;2023-04-01T01:04:03;3.51;99.42
70271;SHT31;57680;54.292;18.598;2023-04-01T01:06:46;3.49;99.46
70271;SHT31;57680;54.292;18.598;2023-04-01T01:12:05;3.47;99.72
70271;SHT31;57680;54.292;18.598;2023-04-01T01:26:07;3.53;99.99
70271;SHT31;57680;54.292;18.598;2023-04-01T01:29:06;3.57;99.99
70271;SHT31;57680;54.292;18.598;2023-04-01T01:31:16;3.61;99.99
70271;SHT31;57680;54.292;18.598;2023-04-01T01:36:15;3.67;99.91
70271;SHT31;57680;54.292;18.598;2023-04-01T01:38:41;3.64;99.78
70271;SHT31;57680;54.292;18.598;2023-04-01T01:41:08;3.61;99.81
70271;SHT31;57680;54.292;18.598;2023-04-01T01:43:41;3.61;99.83
70271;SHT31;57680;54.292;18.598;2023-04-01T01:46:10;3.63;99.87
70271;SHT31;57680;54.292;18.598;2023-04-01T01:48:37;3.61;99.89
70271;SHT31;57680;54.292;18.598;2023-04-01T01:51:05;3.63;99.80
70271;SHT31;57680;54.292;18.598;2023-04-01T01:53:31;3.64;99.81
70271;SHT31;57680;54.292;18.598;2023-04-01T01:55:56;3.66;99.81
70271;SHT31;57680;54.292;18.598;2023-04-01T01:58:28;3.63;99.83
70271;SHT31;57680;54.292;18.598;2023-04-01T02:01:01;3.66;99.75
70271;SHT31;57680;54.292;18.598;2023-04-01T02:03:30;3.61;99.63
70271;SHT31;57680;54.292;18.598;2023-04-01T02:05:59;3.61;99.67
70271;SHT31;57680;54.292;18.598;2023-04-01T02:08:53;3.60;99.69
70271;SHT31;57680;54.292;18.598;2023-04-01T02:11:26;3.63;99.71
70271;SHT31;57680;54.292;18.598;2023-04-01T02:13:57;3.60;99.58
70271;SHT31;57680;54.292;18.598;2023-04-01T02:16:30;3.57;99.51
70271;SHT31;57680;54.292;18.598;2023-04-01T02:18:58;3.54;99.67
70271;SHT31;57680;54.292;18.598;2023-04-01T02:21:27;3.56;99.75
70271;SHT31;57680;54.292;18.598;2023-04-01T02:23:55;3.54;99.69
70271;SHT31;57680;54.292;18.598;2023-04-01T02:26:22;3.51;99.63
70271;SHT31;57680;54.292;18.598;2023-04-01T02:28:50;3.50;99.67
70271;SHT31;57680;54.292;18.598;2023-04-01T02:31:16;3.53;99.83
70271;SHT31;57680;54.292;18.598;2023-04-01T02:33:42;3.53;99.76
70271;SHT31;57680;54.292;18.598;2023-04-01T02:36:12;3.49;99.75
70271;SHT31;57680;54.292;18.598;2023-04-01T02:38:38;3.56;99.86
70271;SHT31;57680;54.292;18.598;2023-04-01T02:41:05;3.53;99.65
70271;SHT31;57680;54.292;18.598;2023-04-01T02:43:30;3.56;99.56
70271;SHT31;57680;54.292;18.598;2023-04-01T02:45:56;3.50;99.60
70271;SHT31;57680;54.292;18.598;2023-04-01T02:48:21;3.53;99.48
70271;SHT31;57680;54.292;18.598;2023-04-01T02:50:47;3.51;99.48
70271;SHT31;57680;54.292;18.598;2023-04-01T02:53:12;3.47;99.59
70271;SHT31;57680;54.292;18.598;2023-04-01T02:55:38;3.49;99.71
70271;SHT31;57680;54.292;18.598;2023-04-01T02:58:04;3.50;99.73
70271;SHT31;57680;54.292;18.598;2023-04-01T03:00:30;3.49;99.65
70271;SHT31;57680;54.292;18.598;2023-04-01T03:02:55;3.50;99.63
70271;SHT31;57680;54.292;18.598;2023-04-01T03:05:21;3.50;99.71
70271;SHT31;57680;54.292;18.598;2023-04-01T03:07:46;3.51;99.69
70271;SHT31;57680;54.292;18.598;2023-04-01T03:10:12;3.51;99.69
70271;SHT31;57680;54.292;18.598;2023-04-01T03:12:37;3.51;99.85
70271;SHT31;57680;54.292;18.598;2023-04-01T03:15:03;3.53;99.89
70271;SHT31;57680;54.292;18.598;2023-04-01T03:17:29;3.51;99.80
70271;SHT31;57680;54.292;18.598;2023-04-01T03:19:54;3.54;99.93
70271;SHT31;57680;54.292;18.598;2023-04-01T03:22:20;3.51;99.71
70271;SHT31;57680;54.292;18.598;2023-04-01T03:24:45;3.54;99.58
70271;SHT31;57680;54.292;18.598;2023-04-01T03:27:10;3.50;99.63
70271;SHT31;57680;54.292;18.598;2023-04-01T03:29:36;3.47;99.65
70271;SHT31;57680;54.292;18.598;2023-04-01T03:32:01;3.50;99.80
70271;SHT31;57680;54.292;18.598;2023-04-01T03:34:27;3.50;99.79
70271;SHT31;57680;54.292;18.598;2023-04-01T03:36:52;3.53;99.66
70271;SHT31;57680;54.292;18.598;2023-04-01T03:39:18;3.51;99.71
70271;SHT31;57680;54.292;18.598;2023-04-01T03:41:43;3.54;99.74
70271;SHT31;57680;54.292;18.598;2023-04-01T03:44:08;3.50;99.77
70271;SHT31;57680;54.292;18.598;2023-04-01T03:46:34;3.53;99.79
70271;SHT31;57680;54.292;18.598;2023-04-01T03:48:59;3.56;99.77
70271;SHT31;57680;54.292;18.598;2023-04-01T03:51:24;3.60;99.66
70271;SHT31;57680;54.292;18.598;2023-04-01T03:53:50;3.53;99.69
70271;SHT31;57680;54.292;18.598;2023-04-01T03:56:15;3.59;99.62
70271;SHT31;57680;54.292;18.598;2023-04-01T03:58:41;3.64;99.67
70271;SHT31;57680;54.292;18.598;2023-04-01T04:01:17;3.57;99.56
70271;SHT31;57680;54.292;18.598;2023-04-01T04:03:43;3.57;99.61
70271;SHT31;57680;54.292;18.598;2023-04-01T04:06:13;3.57;99.74
70271;SHT31;57680;54.292;18.598;2023-04-01T04:08:38;3.56;99.66
70271;SHT31;57680;54.292;18.598;2023-04-01T04:11:04;3.59;99.54
70271;SHT31;57680;54.292;18.598;2023-04-01T04:13:29;3.57;99.60
70271;SHT31;57680;54.292;18.598;2023-04-01T04:15:55;3.54;99.66
70271;SHT31;57680;54.292;18.598;2023-04-01T04:18:20;3.59;99.56
70271;SHT31;57680;54.292;18.598;2023-04-01T04:20:46;3.63;99.61
70271;SHT31;57680;54.292;18.598;2023-04-01T04:23:12;3.61;99.68
70271;SHT31;57680;54.292;18.598;2023-04-01T04:25:37;3.61;99.65
70271;SHT31;57680;54.292;18.598;2023-04-01T04:28:03;3.66;99.44
70271;SHT31;57680;54.292;18.598;2023-04-01T04:30:28;3.66;99.38
70271;SHT31;57680;54.292;18.598;2023-04-01T04:32:54;3.61;99.53
70271;SHT31;57680;54.292;18.598;2023-04-01T04:35:19;3.64;99.49
70271;SHT31;57680;54.292;18.598;2023-04-01T04:37:45;3.66;99.60
70271;SHT31;57680;54.292;18.598;2023-04-01T04:40:10;3.70;99.51
70271;SHT31;57680;54.292;18.598;2023-04-01T04:42:36;3.70;99.54
70271;SHT31;57680;54.292;18.598;2023-04-01T04:45:01;3.73;99.51
70271;SHT31;57680;54.292;18.598;2023-04-01T04:47:27;3.71;99.42
70271;SHT31;57680;54.292;18.598;2023-04-01T04:49:52;3.80;99.33
70271;SHT31;57680;54.292;18.598;2023-04-01T04:52:17;3.78;99.43
70271;SHT31;57680;54.292;18.598;2023-04-01T04:54:43;3.84;99.47
70271;SHT31;57680;54.292;18.598;2023-04-01T04:57:08;3.81;99.31
70271;SHT31;57680;54.292;18.598;2023-04-01T04:59:33;3.87;99.40
70271;SHT31;57680;54.292;18.598;2023-04-01T05:01:59;3.85;99.23
70271;SHT31;57680;54.292;18.598;2023-04-01T05:04:24;3.85;99.34
70271;SHT31;57680;54.292;18.598;2023-04-01T05:06:50;3.90;99.51
70271;SHT31;57680;54.292;18.598;2023-04-01T05:09:15;3.88;99.63
70271;SHT31;57680;54.292;18.598;2023-04-01T05:11:40;3.91;99.65
70271;SHT31;57680;54.292;18.598;2023-04-01T05:14:06;3.94;99.59
70271;SHT31;57680;54.292;18.598;2023-04-01T05:16:36;3.97;99.47
70271;SHT31;57680;54.292;18.598;2023-04-01T05:19:02;3.97;99.47
70271;SHT31;57680;54.292;18.598;2023-04-01T05:21:27;3.98;99.58
70271;SHT31;57680;54.292;18.598;2023-04-01T05:23:52;4.02;99.65
70271;SHT31;57680;54.292;18.598;2023-04-01T05:26:18;4.03;99.44
70271;SHT31;57680;54.292;18.598;2023-04-01T05:28:43;4.05;99.34
70271;SHT31;57680;54.292;18.598;2023-04-01T05:31:09;3.99;99.52
70271;SHT31;57680;54.292;18.598;2023-04-01T05:33:34;3.99;99.76
70271;SHT31;57680;54.292;18.598;2023-04-01T05:36:15;4.01;99.72
70271;SHT31;57680;54.292;18.598;2023-04-01T05:38:40;3.99;99.61
70271;SHT31;57680;54.292;18.598;2023-04-01T05:41:06;3.98;99.41
70271;SHT31;57680;54.292;18.598;2023-04-01T05:43:31;3.97;99.38
70271;SHT31;57680;54.292;18.598;2023-04-01T05:45:57;3.94;99.62
70271;SHT31;57680;54.292;18.598;2023-04-01T05:48:23;3.97;99.61
70271;SHT31;57680;54.292;18.598;2023-04-01T05:50:48;3.98;99.61
70271;SHT31;57680;54.292;18.598;2023-04-01T05:53:14;3.97;99.67
70271;SHT31;57680;54.292;18.598;2023-04-01T05:55:40;3.90;99.44
70271;SHT31;57680;54.292;18.598;2023-04-01T05:58:05;3.94;99.52
70271;SHT31;57680;54.292;18.598;2023-04-01T06:00:31;3.91;99.45
70271;SHT31;57680;54.292;18.598;2023-04-01T06:02:58;3.88;99.62
70271;SHT31;57680;54.292;18.598;2023-04-01T06:05:28;3.90;99.76
70271;SHT31;57680;54.292;18.598;2023-04-01T06:08:17;3.92;99.72
70271;SHT31;57680;54.292;18.598;2023-04-01T06:21:52;3.85;99.45
70271;SHT31;57680;54.292;18.598;2023-04-01T06:32:30;3.78;99.58
70271;SHT31;57680;54.292;18.598;2023-04-01T06:35:07;3.77;99.76
70271;SHT31;57680;54.292;18.598;2023-04-01T06:43:33;3.78;99.82
70271;SHT31;57680;54.292;18.598;2023-04-01T06:54:25;3.69;99.62
70271;SHT31;57680;54.292;18.598;2023-04-01T06:56:59;3.73;99.95
70271;SHT31;57680;54.292;18.598;2023-04-01T06:59:28;3.77;99.99
70271;SHT31;57680;54.292;18.598;2023-04-01T07:02:01;3.74;99.95
70271;SHT31;57680;54.292;18.598;2023-04-01T07:04:31;3.73;99.98
70271;SHT31;57680;54.292;18.598;2023-04-01T07:07:30;3.73;99.98
70271;SHT31;57680;54.292;18.598;2023-04-01T07:09:58;3.75;99.99
70271;SHT31;57680;54.292;18.598;2023-04-01T07:14:58;3.73;99.99
70271;SHT31;57680;54.292;18.598;2023-04-01T07:17:28;3.73;99.99
70271;SHT31;57680;54.292;18.598;2023-04-01T07:20:31;3.71;99.99
70271;SHT31;57680;54.292;18.598;2023-04-01T07:22:59;3.69;99.99
70271;SHT31;57680;54.292;18.598;2023-04-01T07:25:30;3.74;99.99
70271;SHT31;57680;54.292;18.598;2023-04-01T07:28:03;3.73;99.99
70271;SHT31;57680;54.292;18.598;2023-04-01T07:30:39;3.71;99.99
70271;SHT31;57680;54.292;18.598;2023-04-01T07:36:12;3.71;99.99
70271;SHT31;57680;54.292;18.598;2023-04-01T07:41:51;3.81;99.99
70271;SHT31;57680;54.292;18.598;2023-04-01T07:55:54;3.80;99.99
70271;SHT31;57680;54.292;18.598;2023-04-01T08:06:24;3.63;99.77
70271;SHT31;57680;54.292;18.598;2023-04-01T08:09:16;3.63;99.81
70271;SHT31;57680;54.292;18.598;2023-04-01T08:12:50;3.69;99.99
70271;SHT31;57680;54.292;18.598;2023-04-01T08:25:38;3.67;99.92
70271;SHT31;57680;54.292;18.598;2023-04-01T08:28:21;3.67;99.99
70271;SHT31;57680;54.292;18.598;2023-04-01T08:30:56;3.61;99.72
70271;SHT31;57680;54.292;18.598;2023-04-01T08:33:26;3.54;99.40
70271;SHT31;57680;54.292;18.598;2023-04-01T08:38:40;3.54;99.96
70271;SHT31;57680;54.292;18.598;2023-04-01T08:46:34;3.57;99.99
70271;SHT31;57680;54.292;18.598;2023-04-01T08:52:07;3.50;99.92
70271;SHT31;57680;54.292;18.598;2023-04-01T09:02:51;3.53;99.28
70271;SHT31;57680;54.292;18.598;2023-04-01T09:11:28;3.42;99.99
70271;SHT31;57680;54.292;18.598;2023-04-01T09:19:22;3.46;99.45
70271;SHT31;57680;54.292;18.598;2023-04-01T09:22:01;3.51;99.99
70271;SHT31;57680;54.292;18.598;2023-04-01T09:24:35;3.53;99.97
70271;SHT31;57680;54.292;18.598;2023-04-01T09:35:48;3.43;99.99
70271;SHT31;57680;54.292;18.598;2023-04-01T09:44:02;3.49;99.62
70271;SHT31;57680;54.292;18.598;2023-04-01T10:09:23;3.43;99.51
70271;SHT31;57680;54.292;18.598;2023-04-01T10:31:20;3.26;99.60
70271;SHT31;57680;54.292;18.598;2023-04-01T10:36:56;3.29;99.66
70271;SHT31;57680;54.292;18.598;2023-04-01T10:48:21;3.23;99.83
70271;SHT31;57680;54.292;18.598;2023-04-01T10:50:53;3.20;99.68
70271;SHT31;57680;54.292;18.598;2023-04-01T10:53:33;3.18;99.73
70271;SHT31;57680;54.292;18.598;2023-04-01T10:56:29;3.13;99.41
70271;SHT31;57680;54.292;18.598;2023-04-01T11:08:37;3.16;99.99
70271;SHT31;57680;54.292;18.598;2023-04-01T11:16:32;3.22;99.21
70271;SHT31;57680;54.292;18.598;2023-04-01T11:28:02;3.18;98.93
70271;SHT31;57680;54.292;18.598;2023-04-01T11:37:15;3.13;99.22
70271;SHT31;57680;54.292;18.598;2023-04-01T11:42:17;3.08;98.57
70271;SHT31;57680;54.292;18.598;2023-04-01T11:47:58;3.11;98.92
70271;SHT31;57680;54.292;18.598;2023-04-01T11:50:35;3.11;99.31
70271;SHT31;57680;54.292;18.598;2023-04-01T11:56:14;3.01;98.77
70271;SHT31;57680;54.292;18.598;2023-04-01T12:01:49;2.92;98.89
70271;SHT31;57680;54.292;18.598;2023-04-01T12:15:59;3.01;99.39
70271;SHT31;57680;54.292;18.598;2023-04-01T12:18:34;3.05;99.81
70271;SHT31;57680;54.292;18.598;2023-04-01T12:21:22;3.02;99.16
70271;SHT31;57680;54.292;18.598;2023-04-01T12:37:59;2.95;99.01
70271;SHT31;57680;54.292;18.598;2023-04-01T12:57:29;2.84;99.21
70271;SHT31;57680;54.292;18.598;2023-04-01T13:11:13;2.85;98.72
70271;SHT31;57680;54.292;18.598;2023-04-01T13:16:34;2.82;98.88
70271;SHT31;57680;54.292;18.598;2023-04-01T13:25:34;2.74;99.72
70271;SHT31;57680;54.292;18.598;2023-04-01T13:28:24;2.74;99.45
70271;SHT31;57680;54.292;18.598;2023-04-01T13:31:06;2.75;99.99
70271;SHT31;57680;54.292;18.598;2023-04-01T13:36:24;2.72;99.93
70271;SHT31;57680;54.292;18.598;2023-04-01T13:42:14;2.78;99.77
70271;SHT31;57680;54.292;18.598;2023-04-01T13:44:56;2.71;99.25
70271;SHT31;57680;54.292;18.598;2023-04-01T13:57:14;2.57;99.79
70271;SHT31;57680;54.292;18.598;2023-04-01T14:02:49;2.52;99.99
70271;SHT31;57680;54.292;18.598;2023-04-01T14:14:31;2.48;99.71
70271;SHT31;57680;54.292;18.598;2023-04-01T14:22:49;2.48;99.78
70271;SHT31;57680;54.292;18.598;2023-04-01T14:34:18;2.52;99.99
70271;SHT31;57680;54.292;18.598;2023-04-01T14:39:47;2.47;99.99
70271;SHT31;57680;54.292;18.598;2023-04-01T14:42:48;2.42;99.99
70271;SHT31;57680;54.292;18.598;2023-04-01T14:51:32;2.40;99.99
70271;SHT31;57680;54.292;18.598;2023-04-01T14:56:42;2.40;99.99
70271;SHT31;57680;54.292;18.598;2023-04-01T14:59:26;2.41;99.99
70271;SHT31;57680;54.292;18.598;2023-04-01T15:02:03;2.42;99.99
70271;SHT31;57680;54.292;18.598;2023-04-01T15:04:48;2.41;99.61
70271;SHT31;57680;54.292;18.598;2023-04-01T15:13:03;2.40;99.84
70271;SHT31;57680;54.292;18.598;2023-04-01T15:15:58;2.38;99.91
70271;SHT31;57680;54.292;18.598;2023-04-01T15:32:38;2.37;99.99
70271;SHT31;57680;54.292;18.598;2023-04-01T15:43:41;2.36;99.99
70271;SHT31;57680;54.292;18.598;2023-04-01T15:46:52;2.34;99.99
70271;SHT31;57680;54.292;18.598;2023-04-01T15:49:09;2.33;99.99
70271;SHT31;57680;54.292;18.598;2023-04-01T15:57:23;2.34;99.99
70271;SHT31;57680;54.292;18.598;2023-04-01T16:00:19;2.31;99.99
70271;SHT31;57680;54.292;18.598;2023-04-01T16:12:16;2.29;99.96
70271;SHT31;57680;54.292;18.598;2023-04-01T16:20:58;2.27;99.75
70271;SHT31;57680;54.292;18.598;2023-04-01T16:23:42;2.29;99.38
70271;SHT31;57680;54.292;18.598;2023-04-01T16:26:39;2.31;99.99
70271;SHT31;57680;54.292;18.598;2023-04-01T16:29:26;2.29;99.83
70271;SHT31;57680;54.292;18.598;2023-04-01T16:32:36;2.30;99.99
70271;SHT31;57680;54.292;18.598;2023-04-01T16:38:38;2.27;99.92
70271;SHT31;57680;54.292;18.598;2023-04-01T16:43:43;2.23;99.73
70271;SHT31;57680;54.292;18.598;2023-04-01T16:54:33;2.29;99.99
70271;SHT31;57680;54.292;18.598;2023-04-01T16:59:40;2.23;99.43
70271;SHT31;57680;54.292;18.598;2023-04-01T17:02:13;2.24;99.99
70271;SHT31;57680;54.292;18.598;2023-04-01T17:15:12;2.23;99.75
70271;SHT31;57680;54.292;18.598;2023-04-01T17:23:29;2.17;99.68
70271;SHT31;57680;54.292;18.598;2023-04-01T17:42:40;2.03;99.97
70271;SHT31;57680;54.292;18.598;2023-04-01T17:45:24;2.02;99.99
70271;SHT31;57680;54.292;18.598;2023-04-01T17:48:00;2.02;99.86
70271;SHT31;57680;54.292;18.598;2023-04-01T17:53:43;2.03;99.56
70271;SHT31;57680;54.292;18.598;2023-04-01T17:58:46;2.06;99.99
70271;SHT31;57680;54.292;18.598;2023-04-01T18:13:10;2.06;99.96
70271;SHT31;57680;54.292;18.598;2023-04-01T18:23:55;2.11;99.42
70271;SHT31;57680;54.292;18.598;2023-04-01T18:26:24;2.11;99.40
70271;SHT31;57680;54.292;18.598;2023-04-01T18:28:57;2.14;99.48
70271;SHT31;57680;54.292;18.598;2023-04-01T18:31:34;2.16;99.97
70271;SHT31;57680;54.292;18.598;2023-04-01T18:36:54;2.16;99.48
70271;SHT31;57680;54.292;18.598;2023-04-01T18:39:35;2.16;99.59
70271;SHT31;57680;54.292;18.598;2023-04-01T18:44:50;2.16;99.30
70271;SHT31;57680;54.292;18.598;2023-04-01T18:47:50;2.17;99.43
70271;SHT31;57680;54.292;18.598;2023-04-01T18:53:38;2.19;99.19
70271;SHT31;57680;54.292;18.598;2023-04-01T18:56:22;2.19;99.49
70271;SHT31;57680;54.292;18.598;2023-04-01T19:04:35;2.24;99.22
70271;SHT31;57680;54.292;18.598;2023-04-01T19:09:49;2.24;99.33
70271;SHT31;57680;54.292;18.598;2023-04-01T19:13:15;2.23;98.68
70271;SHT31;57680;54.292;18.598;2023-04-01T19:17:58;2.23;98.35
70271;SHT31;57680;54.292;18.598;2023-04-01T19:20:42;2.23;98.63
70271;SHT31;57680;54.292;18.598;2023-04-01T19:25:49;2.19;99.12
70271;SHT31;57680;54.292;18.598;2023-04-01T19:31:08;2.23;99.29
70271;SHT31;57680;54.292;18.598;2023-04-01T19:41:23;2.20;98.82
70271;SHT31;57680;54.292;18.598;2023-04-01T19:46:36;2.20;98.46
70271;SHT31;57680;54.292;18.598;2023-04-01T19:52:35;2.17;98.25
70271;SHT31;57680;54.292;18.598;2023-04-01T20:00:52;2.09;98.53
70271;SHT31;57680;54.292;18.598;2023-04-01T20:03:41;2.09;98.15
70271;SHT31;57680;54.292;18.598;2023-04-01T20:14:44;2.09;99.15
70271;SHT31;57680;54.292;18.598;2023-04-01T20:20:24;2.09;98.85
70271;SHT31;57680;54.292;18.598;2023-04-01T20:28:11;2.10;98.63
70271;SHT31;57680;54.292;18.598;2023-04-01T20:36:39;2.03;99.16
70271;SHT31;57680;54.292;18.598;2023-04-01T20:39:25;2.00;99.32
70271;SHT31;57680;54.292;18.598;2023-04-01T20:45:14;2.03;98.75
70271;SHT31;57680;54.292;18.598;2023-04-01T20:50:59;1.98;98.68
70271;SHT31;57680;54.292;18.598;2023-04-01T20:53:35;2.00;98.66
70271;SHT31;57680;54.292;18.598;2023-04-01T20:56:23;1.96;99.58
70271;SHT31;57680;54.292;18.598;2023-04-01T20:59:21;1.96;99.54
70271;SHT31;57680;54.292;18.598;2023-04-01T21:21:03;1.76;99.60
70271;SHT31;57680;54.292;18.598;2023-04-01T22:14:07;1.72;99.01
70271;SHT31;57680;54.292;18.598;2023-04-01T22:16:48;1.69;99.47
70271;SHT31;57680;54.292;18.598;2023-04-01T22:19:30;1.69;99.35
70271;SHT31;57680;54.292;18.598;2023-04-01T22:24:41;1.69;98.93
70271;SHT31;57680;54.292;18.598;2023-04-01T22:27:31;1.68;98.83
70271;SHT31;57680;54.292;18.598;2023-04-01T22:30:17;1.63;98.80
70271;SHT31;57680;54.292;18.598;2023-04-01T22:32:45;1.65;98.55
70271;SHT31;57680;54.292;18.598;2023-04-01T22:38:14;1.62;98.72
70271;SHT31;57680;54.292;18.598;2023-04-01T22:43:42;1.59;98.91
70271;SHT31;57680;54.292;18.598;2023-04-01T22:46:29;1.59;99.39
70271;SHT31;57680;54.292;18.598;2023-04-01T22:49:26;1.56;98.62
70271;SHT31;57680;54.292;18.598;2023-04-01T22:54:53;1.48;99.29
70271;SHT31;57680;54.292;18.598;2023-04-01T23:00:07;1.40;99.51
70271;SHT31;57680;54.292;18.598;2023-04-01T23:02:38;1.40;99.20
70271;SHT31;57680;54.292;18.598;2023-04-01T23:05:05;1.32;99.89
70271;SHT31;57680;54.292;18.598;2023-04-01T23:07:59;1.32;99.99
70271;SHT31;57680;54.292;18.598;2023-04-01T23:10:47;1.28;99.99
70271;SHT31;57680;54.292;18.598;2023-04-01T23:13:21;1.26;99.99
70271;SHT31;57680;54.292;18.598;2023-04-01T23:15:47;1.27;99.99
70271;SHT31;57680;54.292;18.598;2023-04-01T23:18:32;1.27;99.99
70271;SHT31;57680;54.292;18.598;2023-04-01T23:26:49;1.30;99.99
70271;SHT31;57680;54.292;18.598;2023-04-01T23:29:17;1.30;99.99
70271;SHT31;57680;54.292;18.598;2023-04-01T23:31:49;1.32;99.99
70271;SHT31;57680;54.292;18.598;2023-04-01T23:34:32;1.34;99.99
70271;SHT31;57680;54.292;18.598;2023-04-01T23:37:12;1.40;98.98
70271;SHT31;57680;54.292;18.598;2023-04-01T23:39:46;1.35;98.53
70271;SHT31;57680;54.292;18.598;2023-04-01T23:42:31;1.30;98.91
70271;SHT31;57680;54.292;18.598;2023-04-01T23:45:21;1.32;97.67
70271;SHT31;57680;54.292;18.598;2023-04-01T23:47:46;1.35;97.76
70271;SHT31;57680;54.292;18.598;2023-04-01T23:52:48;1.42;97.45
70271;SHT31;57680;54.292;18.598;2023-04-01T23:55:18;1.44;96.65
